sensor_id;sensor_type;location;lat;lon;timestamp;P1;durP1;ratioP1;P2;durP2;ratioP2
47053;SDS011;32811;52.382;5.270;2022-08-02T00:00:09;4.88;;;0.95;;
47053;SDS011;32811;52.382;5.270;2022-08-02T00:02:43;2.22;;;0.98;;
47053;SDS011;32811;52.382;5.270;2022-08-02T00:05:11;8.20;;;2.47;;
47053;SDS011;32811;52.382;5.270;2022-08-02T00:07:38;3.45;;;1.63;;
47053;SDS011;32811;52.382;5.270;2022-08-02T00:10:07;3.25;;;1.10;;
47053;SDS011;32811;52.382;5.270;2022-08-02T00:12:35;4.95;;;1.75;;
47053;SDS011;32811;52.382;5.270;2022-08-02T00:15:02;3.72;;;0.80;;
47053;SDS011;32811;52.382;5.270;2022-08-02T00:17:30;4.45;;;1.02;;
47053;SDS011;32811;52.382;5.270;2022-08-02T00:19:56;5.38;;;1.63;;
47053;SDS011;32811;52.382;5.270;2022-08-02T00:22:23;7.80;;;1.83;;
47053;SDS011;32811;52.382;5.270;2022-08-02T00:24:49;2.63;;;1.23;;
47053;SDS011;32811;52.382;5.270;2022-08-02T00:27:16;1.92;;;0.98;;
47053;SDS011;32811;52.382;5.270;2022-08-02T00:29:42;4.22;;;1.10;;
47053;SDS011;32811;52.382;5.270;2022-08-02T00:32:18;3.40;;;1.30;;
47053;SDS011;32811;52.382;5.270;2022-08-02T00:34:45;5.22;;;1.20;;
47053;SDS011;32811;52.382;5.270;2022-08-02T00:37:12;4.20;;;1.15;;
47053;SDS011;32811;52.382;5.270;2022-08-02T00:39:39;4.28;;;1.10;;
47053;SDS011;32811;52.382;5.270;2022-08-02T00:42:07;6.25;;;0.77;;
47053;SDS011;32811;52.382;5.270;2022-08-02T00:44:35;3.20;;;1.13;;
47053;SDS011;32811;52.382;5.270;2022-08-02T00:47:02;2.92;;;0.80;;
47053;SDS011;32811;52.382;5.270;2022-08-02T00:49:29;3.67;;;0.95;;
47053;SDS011;32811;52.382;5.270;2022-08-02T00:51:58;2.78;;;0.75;;
47053;SDS011;32811;52.382;5.270;2022-08-02T00:54:24;3.15;;;1.00;;
47053;SDS011;32811;52.382;5.270;2022-08-02T00:56:51;6.38;;;1.92;;
47053;SDS011;32811;52.382;5.270;2022-08-02T00:59:18;5.63;;;1.50;;
47053;SDS011;32811;52.382;5.270;2022-08-02T01:01:45;3.28;;;0.82;;
47053;SDS011;32811;52.382;5.270;2022-08-02T01:04:23;6.35;;;1.55;;
47053;SDS011;32811;52.382;5.270;2022-08-02T01:06:57;4.38;;;1.48;;
47053;SDS011;32811;52.382;5.270;2022-08-02T01:09:24;4.82;;;0.90;;
47053;SDS011;32811;52.382;5.270;2022-08-02T01:11:51;3.30;;;1.10;;
47053;SDS011;32811;52.382;5.270;2022-08-02T01:14:18;3.03;;;1.25;;
47053;SDS011;32811;52.382;5.270;2022-08-02T01:16:47;4.63;;;1.02;;
47053;SDS011;32811;52.382;5.270;2022-08-02T01:22:15;4.78;;;0.80;;
47053;SDS011;32811;52.382;5.270;2022-08-02T01:31:03;4.22;;;1.00;;
47053;SDS011;32811;52.382;5.270;2022-08-02T01:33:31;1.92;;;0.60;;
47053;SDS011;32811;52.382;5.270;2022-08-02T01:36:04;4.55;;;1.33;;
47053;SDS011;32811;52.382;5.270;2022-08-02T01:38:39;2.95;;;1.20;;
47053;SDS011;32811;52.382;5.270;2022-08-02T01:41:11;5.63;;;1.23;;
47053;SDS011;32811;52.382;5.270;2022-08-02T01:43:43;5.93;;;1.15;;
47053;SDS011;32811;52.382;5.270;2022-08-02T01:46:11;2.72;;;1.00;;
47053;SDS011;32811;52.382;5.270;2022-08-02T01:48:40;8.13;;;1.70;;
47053;SDS011;32811;52.382;5.270;2022-08-02T01:51:10;5.88;;;1.40;;
47053;SDS011;32811;52.382;5.270;2022-08-02T01:53:39;3.75;;;1.13;;
47053;SDS011;32811;52.382;5.270;2022-08-02T01:56:08;2.85;;;1.02;;
47053;SDS011;32811;52.382;5.270;2022-08-02T01:58:38;3.53;;;0.77;;
47053;SDS011;32811;52.382;5.270;2022-08-02T02:01:06;7.53;;;1.40;;
47053;SDS011;32811;52.382;5.270;2022-08-02T02:03:40;4.95;;;1.05;;
47053;SDS011;32811;52.382;5.270;2022-08-02T02:06:09;7.50;;;1.00;;
47053;SDS011;32811;52.382;5.270;2022-08-02T02:08:38;3.15;;;0.95;;
47053;SDS011;32811;52.382;5.270;2022-08-02T02:11:06;4.30;;;1.27;;
47053;SDS011;32811;52.382;5.270;2022-08-02T02:13:54;3.67;;;1.02;;
47053;SDS011;32811;52.382;5.270;2022-08-02T02:16:25;6.95;;;1.40;;
47053;SDS011;32811;52.382;5.270;2022-08-02T02:18:53;3.67;;;0.82;;
47053;SDS011;32811;52.382;5.270;2022-08-02T02:21:20;5.78;;;0.90;;
47053;SDS011;32811;52.382;5.270;2022-08-02T02:23:47;6.10;;;1.30;;
47053;SDS011;32811;52.382;5.270;2022-08-02T02:26:16;2.92;;;0.85;;
47053;SDS011;32811;52.382;5.270;2022-08-02T02:28:57;3.22;;;1.00;;
47053;SDS011;32811;52.382;5.270;2022-08-02T02:31:26;4.50;;;1.17;;
47053;SDS011;32811;52.382;5.270;2022-08-02T02:33:59;6.47;;;1.10;;
47053;SDS011;32811;52.382;5.270;2022-08-02T02:36:28;7.15;;;1.75;;
47053;SDS011;32811;52.382;5.270;2022-08-02T02:38:56;2.75;;;1.25;;
47053;SDS011;32811;52.382;5.270;2022-08-02T02:41:27;5.05;;;0.88;;
47053;SDS011;32811;52.382;5.270;2022-08-02T02:43:54;4.10;;;1.00;;
47053;SDS011;32811;52.382;5.270;2022-08-02T02:46:23;1.77;;;0.88;;
47053;SDS011;32811;52.382;5.270;2022-08-02T02:48:52;4.25;;;1.15;;
47053;SDS011;32811;52.382;5.270;2022-08-02T02:51:20;3.83;;;1.10;;
47053;SDS011;32811;52.382;5.270;2022-08-02T02:53:48;8.27;;;1.20;;
47053;SDS011;32811;52.382;5.270;2022-08-02T02:56:36;2.72;;;1.30;;
47053;SDS011;32811;52.382;5.270;2022-08-02T02:59:04;2.15;;;0.63;;
47053;SDS011;32811;52.382;5.270;2022-08-02T03:01:32;2.10;;;1.00;;
47053;SDS011;32811;52.382;5.270;2022-08-02T03:04:19;4.07;;;1.23;;
47053;SDS011;32811;52.382;5.270;2022-08-02T03:06:47;7.40;;;1.48;;
47053;SDS011;32811;52.382;5.270;2022-08-02T03:09:13;3.35;;;1.60;;
47053;SDS011;32811;52.382;5.270;2022-08-02T03:11:40;5.35;;;1.13;;
47053;SDS011;32811;52.382;5.270;2022-08-02T03:14:08;2.60;;;1.23;;
47053;SDS011;32811;52.382;5.270;2022-08-02T03:16:43;4.97;;;1.38;;
47053;SDS011;32811;52.382;5.270;2022-08-02T03:19:12;6.03;;;1.17;;
47053;SDS011;32811;52.382;5.270;2022-08-02T03:21:40;3.05;;;1.25;;
47053;SDS011;32811;52.382;5.270;2022-08-02T03:24:07;5.60;;;1.33;;
47053;SDS011;32811;52.382;5.270;2022-08-02T03:26:34;2.80;;;1.00;;
47053;SDS011;32811;52.382;5.270;2022-08-02T03:29:01;2.17;;;1.00;;
47053;SDS011;32811;52.382;5.270;2022-08-02T03:31:35;3.97;;;1.55;;
47053;SDS011;32811;52.382;5.270;2022-08-02T03:34:06;5.10;;;1.10;;
47053;SDS011;32811;52.382;5.270;2022-08-02T03:36:33;4.15;;;1.13;;
47053;SDS011;32811;52.382;5.270;2022-08-02T03:39:01;2.08;;;1.20;;
47053;SDS011;32811;52.382;5.270;2022-08-02T03:41:29;3.80;;;1.13;;
47053;SDS011;32811;52.382;5.270;2022-08-02T03:43:57;5.93;;;1.80;;
47053;SDS011;32811;52.382;5.270;2022-08-02T03:46:24;2.85;;;1.10;;
47053;SDS011;32811;52.382;5.270;2022-08-02T03:48:51;10.90;;;1.60;;
47053;SDS011;32811;52.382;5.270;2022-08-02T03:51:19;5.15;;;1.55;;
47053;SDS011;32811;52.382;5.270;2022-08-02T03:53:47;8.68;;;1.20;;
47053;SDS011;32811;52.382;5.270;2022-08-02T03:56:14;5.32;;;1.85;;
47053;SDS011;32811;52.382;5.270;2022-08-02T03:58:41;3.35;;;1.75;;
47053;SDS011;32811;52.382;5.270;2022-08-02T04:01:14;6.13;;;1.50;;
47053;SDS011;32811;52.382;5.270;2022-08-02T04:03:40;5.15;;;1.20;;
47053;SDS011;32811;52.382;5.270;2022-08-02T04:06:07;4.25;;;1.00;;
47053;SDS011;32811;52.382;5.270;2022-08-02T04:08:34;3.67;;;1.42;;
47053;SDS011;32811;52.382;5.270;2022-08-02T04:11:04;3.60;;;1.88;;
47053;SDS011;32811;52.382;5.270;2022-08-02T04:13:49;3.35;;;1.75;;
47053;SDS011;32811;52.382;5.270;2022-08-02T04:16:20;4.15;;;0.80;;
47053;SDS011;32811;52.382;5.270;2022-08-02T04:18:50;5.15;;;1.40;;
47053;SDS011;32811;52.382;5.270;2022-08-02T04:21:26;3.38;;;1.17;;
47053;SDS011;32811;52.382;5.270;2022-08-02T04:24:16;2.60;;;1.10;;
47053;SDS011;32811;52.382;5.270;2022-08-02T04:26:49;3.63;;;1.08;;
47053;SDS011;32811;52.382;5.270;2022-08-02T04:29:19;4.28;;;1.40;;
47053;SDS011;32811;52.382;5.270;2022-08-02T04:31:46;3.53;;;1.10;;
47053;SDS011;32811;52.382;5.270;2022-08-02T04:34:14;2.40;;;0.90;;
47053;SDS011;32811;52.382;5.270;2022-08-02T04:36:41;4.00;;;1.45;;
47053;SDS011;32811;52.382;5.270;2022-08-02T04:39:08;7.47;;;1.85;;
47053;SDS011;32811;52.382;5.270;2022-08-02T04:41:42;5.95;;;1.63;;
47053;SDS011;32811;52.382;5.270;2022-08-02T04:44:10;3.25;;;1.50;;
47053;SDS011;32811;52.382;5.270;2022-08-02T04:46:38;4.38;;;1.45;;
47053;SDS011;32811;52.382;5.270;2022-08-02T04:49:05;8.43;;;1.50;;
47053;SDS011;32811;52.382;5.270;2022-08-02T04:51:33;6.65;;;1.50;;
47053;SDS011;32811;52.382;5.270;2022-08-02T04:54:04;5.78;;;1.50;;
47053;SDS011;32811;52.382;5.270;2022-08-02T04:56:36;4.72;;;1.45;;
47053;SDS011;32811;52.382;5.270;2022-08-02T04:59:03;8.10;;;1.95;;
47053;SDS011;32811;52.382;5.270;2022-08-02T05:01:31;6.25;;;1.45;;
47053;SDS011;32811;52.382;5.270;2022-08-02T05:03:57;4.80;;;1.45;;
47053;SDS011;32811;52.382;5.270;2022-08-02T05:06:24;7.95;;;1.58;;
47053;SDS011;32811;52.382;5.270;2022-08-02T05:08:51;8.73;;;1.50;;
47053;SDS011;32811;52.382;5.270;2022-08-02T05:11:19;4.20;;;1.50;;
47053;SDS011;32811;52.382;5.270;2022-08-02T05:13:47;4.45;;;1.30;;
47053;SDS011;32811;52.382;5.270;2022-08-02T05:16:24;8.95;;;1.67;;
47053;SDS011;32811;52.382;5.270;2022-08-02T05:18:56;12.80;;;2.65;;
47053;SDS011;32811;52.382;5.270;2022-08-02T05:21:23;6.38;;;1.25;;
47053;SDS011;32811;52.382;5.270;2022-08-02T05:23:50;6.18;;;1.48;;
47053;SDS011;32811;52.382;5.270;2022-08-02T05:26:16;3.70;;;1.50;;
47053;SDS011;32811;52.382;5.270;2022-08-02T05:28:43;6.30;;;1.70;;
47053;SDS011;32811;52.382;5.270;2022-08-02T05:31:09;5.82;;;1.83;;
47053;SDS011;32811;52.382;5.270;2022-08-02T05:33:38;3.42;;;1.33;;
47053;SDS011;32811;52.382;5.270;2022-08-02T05:36:05;5.05;;;1.20;;
47053;SDS011;32811;52.382;5.270;2022-08-02T05:38:32;4.93;;;1.48;;
47053;SDS011;32811;52.382;5.270;2022-08-02T05:41:02;3.80;;;1.33;;
47053;SDS011;32811;52.382;5.270;2022-08-02T05:43:29;8.85;;;1.65;;
47053;SDS011;32811;52.382;5.270;2022-08-02T05:45:56;5.88;;;1.17;;
47053;SDS011;32811;52.382;5.270;2022-08-02T05:48:22;4.10;;;1.30;;
47053;SDS011;32811;52.382;5.270;2022-08-02T05:51:02;2.95;;;1.20;;
47053;SDS011;32811;52.382;5.270;2022-08-02T05:56:07;3.05;;;1.23;;
47053;SDS011;32811;52.382;5.270;2022-08-02T05:59:02;5.65;;;1.33;;
47053;SDS011;32811;52.382;5.270;2022-08-02T06:01:36;6.50;;;1.38;;
47053;SDS011;32811;52.382;5.270;2022-08-02T06:04:06;5.95;;;1.17;;
47053;SDS011;32811;52.382;5.270;2022-08-02T06:06:34;2.55;;;0.98;;
47053;SDS011;32811;52.382;5.270;2022-08-02T06:09:09;3.97;;;1.10;;
47053;SDS011;32811;52.382;5.270;2022-08-02T06:11:45;4.25;;;1.10;;
47053;SDS011;32811;52.382;5.270;2022-08-02T06:14:30;2.05;;;0.60;;
47053;SDS011;32811;52.382;5.270;2022-08-02T06:16:58;3.35;;;0.93;;
47053;SDS011;32811;52.382;5.270;2022-08-02T06:19:30;9.63;;;1.02;;
47053;SDS011;32811;52.382;5.270;2022-08-02T06:22:16;4.13;;;1.88;;
47053;SDS011;32811;52.382;5.270;2022-08-02T06:25:01;9.80;;;1.35;;
47053;SDS011;32811;52.382;5.270;2022-08-02T06:27:29;5.25;;;1.00;;
47053;SDS011;32811;52.382;5.270;2022-08-02T06:29:55;9.00;;;1.52;;
47053;SDS011;32811;52.382;5.270;2022-08-02T06:32:23;3.00;;;1.13;;
47053;SDS011;32811;52.382;5.270;2022-08-02T06:34:52;5.13;;;2.10;;
47053;SDS011;32811;52.382;5.270;2022-08-02T06:37:26;5.57;;;0.98;;
47053;SDS011;32811;52.382;5.270;2022-08-02T06:40:03;2.33;;;0.90;;
47053;SDS011;32811;52.382;5.270;2022-08-02T06:42:50;6.32;;;1.25;;
47053;SDS011;32811;52.382;5.270;2022-08-02T06:45:23;1.83;;;0.68;;
47053;SDS011;32811;52.382;5.270;2022-08-02T06:47:49;3.15;;;0.80;;
47053;SDS011;32811;52.382;5.270;2022-08-02T06:50:16;4.03;;;1.10;;
47053;SDS011;32811;52.382;5.270;2022-08-02T06:52:43;6.90;;;1.05;;
47053;SDS011;32811;52.382;5.270;2022-08-02T06:55:09;4.70;;;1.02;;
47053;SDS011;32811;52.382;5.270;2022-08-02T06:57:36;4.82;;;1.10;;
47053;SDS011;32811;52.382;5.270;2022-08-02T07:00:03;7.45;;;1.45;;
47053;SDS011;32811;52.382;5.270;2022-08-02T07:02:35;5.22;;;1.55;;
47053;SDS011;32811;52.382;5.270;2022-08-02T07:05:02;4.18;;;1.17;;
47053;SDS011;32811;52.382;5.270;2022-08-02T07:07:29;6.70;;;1.83;;
47053;SDS011;32811;52.382;5.270;2022-08-02T07:09:57;8.73;;;1.15;;
47053;SDS011;32811;52.382;5.270;2022-08-02T07:12:31;4.63;;;1.63;;
47053;SDS011;32811;52.382;5.270;2022-08-02T07:14:59;5.88;;;2.05;;
47053;SDS011;32811;52.382;5.270;2022-08-02T07:17:27;5.15;;;1.42;;
47053;SDS011;32811;52.382;5.270;2022-08-02T07:19:55;5.38;;;1.20;;
47053;SDS011;32811;52.382;5.270;2022-08-02T07:22:21;3.08;;;1.40;;
47053;SDS011;32811;52.382;5.270;2022-08-02T07:24:49;4.80;;;2.00;;
47053;SDS011;32811;52.382;5.270;2022-08-02T07:27:16;8.10;;;1.92;;
47053;SDS011;32811;52.382;5.270;2022-08-02T07:29:43;9.02;;;2.45;;
47053;SDS011;32811;52.382;5.270;2022-08-02T07:32:13;3.25;;;1.58;;
47053;SDS011;32811;52.382;5.270;2022-08-02T07:34:41;9.77;;;1.90;;
47053;SDS011;32811;52.382;5.270;2022-08-02T07:37:18;7.63;;;1.70;;
47053;SDS011;32811;52.382;5.270;2022-08-02T07:40:05;6.45;;;2.33;;
47053;SDS011;32811;52.382;5.270;2022-08-02T07:45:07;7.95;;;1.80;;
47053;SDS011;32811;52.382;5.270;2022-08-02T07:47:37;3.13;;;1.63;;
47053;SDS011;32811;52.382;5.270;2022-08-02T07:50:05;8.82;;;2.10;;
47053;SDS011;32811;52.382;5.270;2022-08-02T07:52:33;5.93;;;2.58;;
47053;SDS011;32811;52.382;5.270;2022-08-02T07:54:59;5.40;;;1.73;;
47053;SDS011;32811;52.382;5.270;2022-08-02T07:57:26;6.30;;;2.17;;
47053;SDS011;32811;52.382;5.270;2022-08-02T07:59:53;8.55;;;3.25;;
47053;SDS011;32811;52.382;5.270;2022-08-02T08:02:19;5.82;;;3.72;;
47053;SDS011;32811;52.382;5.270;2022-08-02T08:04:46;6.00;;;3.00;;
47053;SDS011;32811;52.382;5.270;2022-08-02T08:07:12;8.90;;;4.40;;
47053;SDS011;32811;52.382;5.270;2022-08-02T08:09:39;4.95;;;3.10;;
47053;SDS011;32811;52.382;5.270;2022-08-02T08:12:07;9.23;;;2.97;;
47053;SDS011;32811;52.382;5.270;2022-08-02T08:14:35;8.80;;;3.45;;
47053;SDS011;32811;52.382;5.270;2022-08-02T08:17:01;7.95;;;3.70;;
47053;SDS011;32811;52.382;5.270;2022-08-02T08:19:28;5.80;;;3.90;;
47053;SDS011;32811;52.382;5.270;2022-08-02T08:22:15;4.07;;;2.95;;
47053;SDS011;32811;52.382;5.270;2022-08-02T08:24:42;6.30;;;3.38;;
47053;SDS011;32811;52.382;5.270;2022-08-02T08:27:08;7.82;;;3.10;;
47053;SDS011;32811;52.382;5.270;2022-08-02T08:29:40;7.47;;;4.13;;
47053;SDS011;32811;52.382;5.270;2022-08-02T08:32:07;6.97;;;4.03;;
47053;SDS011;32811;52.382;5.270;2022-08-02T08:34:41;5.90;;;3.92;;
47053;SDS011;32811;52.382;5.270;2022-08-02T08:37:07;8.52;;;4.03;;
47053;SDS011;32811;52.382;5.270;2022-08-02T08:39:34;4.85;;;3.28;;
47053;SDS011;32811;52.382;5.270;2022-08-02T08:42:20;6.25;;;4.35;;
47053;SDS011;32811;52.382;5.270;2022-08-02T08:44:47;8.32;;;3.80;;
47053;SDS011;32811;52.382;5.270;2022-08-02T08:47:13;7.82;;;3.63;;
47053;SDS011;32811;52.382;5.270;2022-08-02T08:49:40;8.75;;;3.88;;
47053;SDS011;32811;52.382;5.270;2022-08-02T08:52:18;5.93;;;3.78;;
47053;SDS011;32811;52.382;5.270;2022-08-02T08:54:48;6.47;;;3.30;;
47053;SDS011;32811;52.382;5.270;2022-08-02T08:57:16;7.65;;;3.53;;
47053;SDS011;32811;52.382;5.270;2022-08-02T08:59:45;5.70;;;3.08;;
47053;SDS011;32811;52.382;5.270;2022-08-02T09:02:11;4.93;;;2.60;;
47053;SDS011;32811;52.382;5.270;2022-08-02T09:04:47;3.53;;;2.30;;
47053;SDS011;32811;52.382;5.270;2022-08-02T09:07:19;6.10;;;2.17;;
47053;SDS011;32811;52.382;5.270;2022-08-02T09:09:46;4.25;;;1.80;;
47053;SDS011;32811;52.382;5.270;2022-08-02T09:12:13;3.80;;;1.75;;
47053;SDS011;32811;52.382;5.270;2022-08-02T09:14:41;4.53;;;2.22;;
47053;SDS011;32811;52.382;5.270;2022-08-02T09:17:08;5.88;;;1.80;;
47053;SDS011;32811;52.382;5.270;2022-08-02T09:19:38;3.30;;;2.20;;
47053;SDS011;32811;52.382;5.270;2022-08-02T09:22:11;9.55;;;2.55;;
47053;SDS011;32811;52.382;5.270;2022-08-02T09:24:48;5.85;;;1.58;;
47053;SDS011;32811;52.382;5.270;2022-08-02T09:27:17;4.00;;;1.88;;
47053;SDS011;32811;52.382;5.270;2022-08-02T09:29:46;6.20;;;2.13;;
47053;SDS011;32811;52.382;5.270;2022-08-02T09:32:44;5.45;;;1.80;;
47053;SDS011;32811;52.382;5.270;2022-08-02T09:35:13;4.50;;;1.77;;
47053;SDS011;32811;52.382;5.270;2022-08-02T09:38:16;4.45;;;1.75;;
47053;SDS011;32811;52.382;5.270;2022-08-02T09:40:42;5.22;;;2.00;;
47053;SDS011;32811;52.382;5.270;2022-08-02T09:43:09;3.67;;;1.65;;
47053;SDS011;32811;52.382;5.270;2022-08-02T09:45:36;5.85;;;2.75;;
47053;SDS011;32811;52.382;5.270;2022-08-02T09:48:06;3.83;;;2.42;;
47053;SDS011;32811;52.382;5.270;2022-08-02T09:50:37;5.47;;;2.50;;
47053;SDS011;32811;52.382;5.270;2022-08-02T09:53:05;5.82;;;2.80;;
47053;SDS011;32811;52.382;5.270;2022-08-02T09:55:37;6.53;;;2.63;;
47053;SDS011;32811;52.382;5.270;2022-08-02T09:58:19;6.85;;;3.13;;
47053;SDS011;32811;52.382;5.270;2022-08-02T10:00:56;5.28;;;3.20;;
47053;SDS011;32811;52.382;5.270;2022-08-02T10:03:26;3.55;;;2.30;;
47053;SDS011;32811;52.382;5.270;2022-08-02T10:06:00;4.28;;;3.05;;
47053;SDS011;32811;52.382;5.270;2022-08-02T10:08:29;3.80;;;2.85;;
47053;SDS011;32811;52.382;5.270;2022-08-02T10:10:58;5.00;;;2.33;;
47053;SDS011;32811;52.382;5.270;2022-08-02T10:13:29;4.50;;;2.85;;
47053;SDS011;32811;52.382;5.270;2022-08-02T10:16:00;5.03;;;3.25;;
47053;SDS011;32811;52.382;5.270;2022-08-02T10:18:29;4.18;;;2.83;;
47053;SDS011;32811;52.382;5.270;2022-08-02T10:21:08;3.95;;;3.38;;
47053;SDS011;32811;52.382;5.270;2022-08-02T10:23:37;6.30;;;3.67;;
47053;SDS011;32811;52.382;5.270;2022-08-02T10:26:05;5.38;;;3.53;;
47053;SDS011;32811;52.382;5.270;2022-08-02T10:28:33;8.00;;;3.85;;
47053;SDS011;32811;52.382;5.270;2022-08-02T10:31:01;4.25;;;3.75;;
47053;SDS011;32811;52.382;5.270;2022-08-02T10:33:31;4.40;;;2.85;;
47053;SDS011;32811;52.382;5.270;2022-08-02T10:36:01;5.20;;;3.50;;
47053;SDS011;32811;52.382;5.270;2022-08-02T10:38:33;6.40;;;4.20;;
47053;SDS011;32811;52.382;5.270;2022-08-02T10:41:00;6.13;;;3.65;;
47053;SDS011;32811;52.382;5.270;2022-08-02T10:49:01;8.30;;;3.20;;
47053;SDS011;32811;52.382;5.270;2022-08-02T10:51:55;4.50;;;2.83;;
47053;SDS011;32811;52.382;5.270;2022-08-02T10:54:32;3.30;;;3.00;;
47053;SDS011;32811;52.382;5.270;2022-08-02T10:57:02;5.35;;;2.75;;
47053;SDS011;32811;52.382;5.270;2022-08-02T10:59:40;4.30;;;2.85;;
47053;SDS011;32811;52.382;5.270;2022-08-02T11:02:07;5.45;;;3.70;;
47053;SDS011;32811;52.382;5.270;2022-08-02T11:09:40;4.97;;;3.40;;
47053;SDS011;32811;52.382;5.270;2022-08-02T11:12:09;6.30;;;3.63;;
47053;SDS011;32811;52.382;5.270;2022-08-02T11:14:41;7.70;;;2.40;;
47053;SDS011;32811;52.382;5.270;2022-08-02T11:17:13;6.10;;;1.88;;
47053;SDS011;32811;52.382;5.270;2022-08-02T11:22:36;2.85;;;1.67;;
47053;SDS011;32811;52.382;5.270;2022-08-02T11:27:48;2.25;;;1.23;;
47053;SDS011;32811;52.382;5.270;2022-08-02T11:30:14;2.42;;;1.52;;
47053;SDS011;32811;52.382;5.270;2022-08-02T11:32:41;2.20;;;1.80;;
47053;SDS011;32811;52.382;5.270;2022-08-02T11:35:08;4.07;;;1.67;;
47053;SDS011;32811;52.382;5.270;2022-08-02T11:37:36;3.35;;;1.60;;
47053;SDS011;32811;52.382;5.270;2022-08-02T11:40:05;4.95;;;1.70;;
47053;SDS011;32811;52.382;5.270;2022-08-02T11:42:45;1.85;;;1.30;;
47053;SDS011;32811;52.382;5.270;2022-08-02T11:45:16;2.58;;;1.40;;
47053;SDS011;32811;52.382;5.270;2022-08-02T11:47:48;4.63;;;1.40;;
47053;SDS011;32811;52.382;5.270;2022-08-02T11:50:20;3.97;;;1.63;;
47053;SDS011;32811;52.382;5.270;2022-08-02T11:52:55;2.35;;;1.20;;
47053;SDS011;32811;52.382;5.270;2022-08-02T11:55:26;1.48;;;1.35;;
47053;SDS011;32811;52.382;5.270;2022-08-02T11:58:01;2.83;;;1.38;;
47053;SDS011;32811;52.382;5.270;2022-08-02T12:00:31;4.85;;;2.10;;
47053;SDS011;32811;52.382;5.270;2022-08-02T12:02:57;5.68;;;2.03;;
47053;SDS011;32811;52.382;5.270;2022-08-02T12:05:24;5.28;;;2.53;;
47053;SDS011;32811;52.382;5.270;2022-08-02T12:08:14;3.67;;;1.60;;
47053;SDS011;32811;52.382;5.270;2022-08-02T12:10:47;4.97;;;1.80;;
47053;SDS011;32811;52.382;5.270;2022-08-02T12:13:14;5.43;;;1.98;;
47053;SDS011;32811;52.382;5.270;2022-08-02T12:15:42;2.28;;;1.80;;
47053;SDS011;32811;52.382;5.270;2022-08-02T12:18:14;5.70;;;2.15;;
47053;SDS011;32811;52.382;5.270;2022-08-02T12:21:19;5.32;;;1.77;;
47053;SDS011;32811;52.382;5.270;2022-08-02T12:23:49;4.18;;;1.65;;
47053;SDS011;32811;52.382;5.270;2022-08-02T12:26:25;3.10;;;1.92;;
47053;SDS011;32811;52.382;5.270;2022-08-02T12:28:56;6.75;;;2.05;;
47053;SDS011;32811;52.382;5.270;2022-08-02T12:31:38;5.07;;;2.00;;
47053;SDS011;32811;52.382;5.270;2022-08-02T12:34:23;4.28;;;2.17;;
47053;SDS011;32811;52.382;5.270;2022-08-02T12:42:12;3.10;;;1.30;;
47053;SDS011;32811;52.382;5.270;2022-08-02T12:44:51;5.57;;;1.60;;
47053;SDS011;32811;52.382;5.270;2022-08-02T12:47:24;3.63;;;1.63;;
47053;SDS011;32811;52.382;5.270;2022-08-02T12:50:14;2.00;;;1.00;;
47053;SDS011;32811;52.382;5.270;2022-08-02T12:52:49;3.97;;;1.52;;
47053;SDS011;32811;52.382;5.270;2022-08-02T12:55:20;3.22;;;1.40;;
47053;SDS011;32811;52.382;5.270;2022-08-02T12:57:59;4.20;;;1.73;;
47053;SDS011;32811;52.382;5.270;2022-08-02T13:00:29;4.45;;;1.83;;
47053;SDS011;32811;52.382;5.270;2022-08-02T13:02:58;2.05;;;1.30;;
47053;SDS011;32811;52.382;5.270;2022-08-02T13:05:26;4.80;;;1.63;;
47053;SDS011;32811;52.382;5.270;2022-08-02T13:08:17;3.13;;;1.40;;
47053;SDS011;32811;52.382;5.270;2022-08-02T13:10:44;4.55;;;1.98;;
47053;SDS011;32811;52.382;5.270;2022-08-02T13:13:10;4.10;;;1.23;;
47053;SDS011;32811;52.382;5.270;2022-08-02T13:15:37;2.30;;;1.30;;
47053;SDS011;32811;52.382;5.270;2022-08-02T13:18:16;2.00;;;1.30;;
47053;SDS011;32811;52.382;5.270;2022-08-02T13:20:43;2.65;;;0.95;;
47053;SDS011;32811;52.382;5.270;2022-08-02T13:23:10;2.10;;;0.98;;
47053;SDS011;32811;52.382;5.270;2022-08-02T13:25:47;2.03;;;0.77;;
47053;SDS011;32811;52.382;5.270;2022-08-02T13:28:18;4.00;;;0.70;;
47053;SDS011;32811;52.382;5.270;2022-08-02T13:30:45;3.60;;;0.70;;
47053;SDS011;32811;52.382;5.270;2022-08-02T13:33:12;3.75;;;0.98;;
47053;SDS011;32811;52.382;5.270;2022-08-02T13:35:40;1.95;;;0.95;;
47053;SDS011;32811;52.382;5.270;2022-08-02T13:38:07;1.85;;;0.80;;
47053;SDS011;32811;52.382;5.270;2022-08-02T13:40:34;2.60;;;1.00;;
47053;SDS011;32811;52.382;5.270;2022-08-02T13:43:30;1.55;;;0.90;;
47053;SDS011;32811;52.382;5.270;2022-08-02T13:46:16;5.03;;;1.30;;
47053;SDS011;32811;52.382;5.270;2022-08-02T13:48:54;2.60;;;0.98;;
47053;SDS011;32811;52.382;5.270;2022-08-02T13:51:21;3.03;;;1.00;;
47053;SDS011;32811;52.382;5.270;2022-08-02T13:53:47;2.15;;;0.80;;
47053;SDS011;32811;52.382;5.270;2022-08-02T13:56:14;2.67;;;1.33;;
47053;SDS011;32811;52.382;5.270;2022-08-02T13:58:41;2.47;;;1.25;;
47053;SDS011;32811;52.382;5.270;2022-08-02T14:01:08;10.93;;;1.40;;
47053;SDS011;32811;52.382;5.270;2022-08-02T14:03:34;2.42;;;1.00;;
47053;SDS011;32811;52.382;5.270;2022-08-02T14:06:21;3.78;;;1.00;;
47053;SDS011;32811;52.382;5.270;2022-08-02T14:08:48;4.10;;;1.02;;
47053;SDS011;32811;52.382;5.270;2022-08-02T14:11:14;5.63;;;1.25;;
47053;SDS011;32811;52.382;5.270;2022-08-02T14:13:41;5.47;;;1.40;;
47053;SDS011;32811;52.382;5.270;2022-08-02T14:16:07;2.47;;;0.80;;
47053;SDS011;32811;52.382;5.270;2022-08-02T14:18:34;3.75;;;1.50;;
47053;SDS011;32811;52.382;5.270;2022-08-02T14:21:01;5.40;;;1.67;;
47053;SDS011;32811;52.382;5.270;2022-08-02T14:23:28;4.25;;;1.58;;
47053;SDS011;32811;52.382;5.270;2022-08-02T14:26:15;3.28;;;1.30;;
47053;SDS011;32811;52.382;5.270;2022-08-02T14:28:53;4.15;;;1.48;;
47053;SDS011;32811;52.382;5.270;2022-08-02T14:31:20;8.15;;;1.50;;
47053;SDS011;32811;52.382;5.270;2022-08-02T14:33:46;3.38;;;1.17;;
47053;SDS011;32811;52.382;5.270;2022-08-02T14:36:13;6.93;;;1.45;;
47053;SDS011;32811;52.382;5.270;2022-08-02T14:38:39;4.55;;;2.00;;
47053;SDS011;32811;52.382;5.270;2022-08-02T14:41:06;3.42;;;1.35;;
47053;SDS011;32811;52.382;5.270;2022-08-02T14:43:32;2.25;;;0.80;;
47053;SDS011;32811;52.382;5.270;2022-08-02T14:46:17;6.90;;;1.10;;
47053;SDS011;32811;52.382;5.270;2022-08-02T14:48:44;2.92;;;1.05;;
47053;SDS011;32811;52.382;5.270;2022-08-02T14:51:10;1.88;;;1.10;;
47053;SDS011;32811;52.382;5.270;2022-08-02T14:53:39;7.05;;;1.20;;
47053;SDS011;32811;52.382;5.270;2022-08-02T14:56:14;5.00;;;1.23;;
47053;SDS011;32811;52.382;5.270;2022-08-02T14:58:41;5.15;;;1.00;;
47053;SDS011;32811;52.382;5.270;2022-08-02T15:01:07;5.57;;;0.85;;
47053;SDS011;32811;52.382;5.270;2022-08-02T15:03:39;6.03;;;1.10;;
47053;SDS011;32811;52.382;5.270;2022-08-02T15:06:09;5.00;;;1.20;;
47053;SDS011;32811;52.382;5.270;2022-08-02T15:08:35;5.38;;;1.30;;
47053;SDS011;32811;52.382;5.270;2022-08-02T15:11:02;5.05;;;0.75;;
47053;SDS011;32811;52.382;5.270;2022-08-02T15:13:28;1.92;;;0.70;;
47053;SDS011;32811;52.382;5.270;2022-08-02T15:15:55;5.22;;;1.38;;
47053;SDS011;32811;52.382;5.270;2022-08-02T15:18:21;6.65;;;1.00;;
47053;SDS011;32811;52.382;5.270;2022-08-02T15:20:50;7.60;;;1.13;;
47053;SDS011;32811;52.382;5.270;2022-08-02T15:23:23;8.88;;;1.38;;
47053;SDS011;32811;52.382;5.270;2022-08-02T15:26:03;7.78;;;1.00;;
47053;SDS011;32811;52.382;5.270;2022-08-02T15:28:30;3.47;;;1.25;;
47053;SDS011;32811;52.382;5.270;2022-08-02T15:30:57;6.72;;;1.25;;
47053;SDS011;32811;52.382;5.270;2022-08-02T15:33:25;5.45;;;1.33;;
47053;SDS011;32811;52.382;5.270;2022-08-02T15:35:51;6.75;;;1.25;;
47053;SDS011;32811;52.382;5.270;2022-08-02T15:38:18;5.82;;;0.95;;
47053;SDS011;32811;52.382;5.270;2022-08-02T15:40:44;9.75;;;1.73;;
47053;SDS011;32811;52.382;5.270;2022-08-02T15:43:11;7.78;;;1.20;;